sensor_id;sensor_type;location;lat;lon;timestamp;P1;durP1;ratioP1;P2;durP2;ratioP2
21621;SDS011;10973;46.706;12.340;2023-07-16T00:01:04;9.20;;;8.45;;
21621;SDS011;10973;46.706;12.340;2023-07-16T00:03:31;9.77;;;8.90;;
21621;SDS011;10973;46.706;12.340;2023-07-16T00:05:59;9.43;;;8.60;;
21621;SDS011;10973;46.706;12.340;2023-07-16T00:08:26;9.43;;;8.35;;
21621;SDS011;10973;46.706;12.340;2023-07-16T00:10:53;10.50;;;9.40;;
21621;SDS011;10973;46.706;12.340;2023-07-16T00:13:21;9.13;;;8.35;;
21621;SDS011;10973;46.706;12.340;2023-07-16T00:15:48;9.35;;;8.65;;
21621;SDS011;10973;46.706;12.340;2023-07-16T00:18:15;10.05;;;9.05;;
21621;SDS011;10973;46.706;12.340;2023-07-16T00:20:43;9.18;;;8.38;;
21621;SDS011;10973;46.706;12.340;2023-07-16T00:23:11;9.38;;;8.57;;
21621;SDS011;10973;46.706;12.340;2023-07-16T00:25:38;9.70;;;8.85;;
21621;SDS011;10973;46.706;12.340;2023-07-16T00:28:05;10.60;;;9.75;;
21621;SDS011;10973;46.706;12.340;2023-07-16T00:30:32;8.93;;;8.13;;
21621;SDS011;10973;46.706;12.340;2023-07-16T00:33:00;8.82;;;8.20;;
21621;SDS011;10973;46.706;12.340;2023-07-16T00:35:27;9.23;;;8.33;;
21621;SDS011;10973;46.706;12.340;2023-07-16T00:37:55;10.15;;;9.30;;
21621;SDS011;10973;46.706;12.340;2023-07-16T00:40:22;9.95;;;9.15;;
21621;SDS011;10973;46.706;12.340;2023-07-16T00:42:50;9.77;;;8.88;;
21621;SDS011;10973;46.706;12.340;2023-07-16T00:45:17;10.77;;;9.68;;
21621;SDS011;10973;46.706;12.340;2023-07-16T00:47:44;10.02;;;8.98;;
21621;SDS011;10973;46.706;12.340;2023-07-16T00:50:12;10.40;;;9.40;;
21621;SDS011;10973;46.706;12.340;2023-07-16T00:52:41;10.53;;;9.47;;
21621;SDS011;10973;46.706;12.340;2023-07-16T00:55:08;10.00;;;9.20;;
21621;SDS011;10973;46.706;12.340;2023-07-16T00:57:37;9.33;;;8.40;;
21621;SDS011;10973;46.706;12.340;2023-07-16T01:00:05;10.00;;;9.17;;
21621;SDS011;10973;46.706;12.340;2023-07-16T01:02:34;9.07;;;8.23;;
21621;SDS011;10973;46.706;12.340;2023-07-16T01:05:01;9.87;;;8.93;;
21621;SDS011;10973;46.706;12.340;2023-07-16T01:07:30;9.90;;;8.90;;
21621;SDS011;10973;46.706;12.340;2023-07-16T01:10:00;9.60;;;8.80;;
21621;SDS011;10973;46.706;12.340;2023-07-16T01:12:28;9.23;;;8.53;;
21621;SDS011;10973;46.706;12.340;2023-07-16T01:14:59;10.20;;;9.50;;
21621;SDS011;10973;46.706;12.340;2023-07-16T01:17:26;10.60;;;9.70;;
21621;SDS011;10973;46.706;12.340;2023-07-16T01:19:54;9.50;;;8.70;;
21621;SDS011;10973;46.706;12.340;2023-07-16T01:22:27;9.47;;;8.67;;
21621;SDS011;10973;46.706;12.340;2023-07-16T01:31:41;13.80;;;9.23;;
21621;SDS011;10973;46.706;12.340;2023-07-16T01:34:10;9.93;;;9.00;;
21621;SDS011;10973;46.706;12.340;2023-07-16T01:36:41;10.17;;;9.37;;
21621;SDS011;10973;46.706;12.340;2023-07-16T01:39:09;10.47;;;9.33;;
21621;SDS011;10973;46.706;12.340;2023-07-16T01:41:37;9.17;;;8.43;;
21621;SDS011;10973;46.706;12.340;2023-07-16T01:44:04;10.17;;;9.27;;
21621;SDS011;10973;46.706;12.340;2023-07-16T01:46:32;9.70;;;9.00;;
21621;SDS011;10973;46.706;12.340;2023-07-16T01:48:59;10.33;;;9.30;;
21621;SDS011;10973;46.706;12.340;2023-07-16T01:51:27;11.20;;;10.13;;
21621;SDS011;10973;46.706;12.340;2023-07-16T01:53:55;10.60;;;9.60;;
21621;SDS011;10973;46.706;12.340;2023-07-16T01:56:23;11.43;;;9.60;;
21621;SDS011;10973;46.706;12.340;2023-07-16T01:58:50;10.30;;;9.33;;
21621;SDS011;10973;46.706;12.340;2023-07-16T02:01:17;10.20;;;9.40;;
21621;SDS011;10973;46.706;12.340;2023-07-16T02:03:45;10.17;;;9.37;;
21621;SDS011;10973;46.706;12.340;2023-07-16T02:06:12;10.73;;;9.73;;
21621;SDS011;10973;46.706;12.340;2023-07-16T02:08:40;10.60;;;9.80;;
21621;SDS011;10973;46.706;12.340;2023-07-16T02:11:08;10.27;;;9.30;;
21621;SDS011;10973;46.706;12.340;2023-07-16T02:13:35;9.50;;;8.67;;
21621;SDS011;10973;46.706;12.340;2023-07-16T02:16:03;10.43;;;9.33;;
21621;SDS011;10973;46.706;12.340;2023-07-16T02:18:30;10.20;;;9.27;;
21621;SDS011;10973;46.706;12.340;2023-07-16T02:20:58;11.67;;;9.27;;
21621;SDS011;10973;46.706;12.340;2023-07-16T02:23:25;9.90;;;9.00;;
21621;SDS011;10973;46.706;12.340;2023-07-16T02:25:52;10.10;;;9.10;;
21621;SDS011;10973;46.706;12.340;2023-07-16T02:28:20;10.00;;;9.20;;
21621;SDS011;10973;46.706;12.340;2023-07-16T02:30:48;10.17;;;9.27;;
21621;SDS011;10973;46.706;12.340;2023-07-16T02:33:16;10.20;;;9.40;;
21621;SDS011;10973;46.706;12.340;2023-07-16T02:35:47;10.07;;;9.00;;
21621;SDS011;10973;46.706;12.340;2023-07-16T02:38:16;10.20;;;9.40;;
21621;SDS011;10973;46.706;12.340;2023-07-16T02:40:47;10.43;;;9.63;;
21621;SDS011;10973;46.706;12.340;2023-07-16T02:43:15;10.23;;;9.40;;
21621;SDS011;10973;46.706;12.340;2023-07-16T02:45:42;10.27;;;9.37;;
21621;SDS011;10973;46.706;12.340;2023-07-16T02:48:10;10.30;;;9.43;;
21621;SDS011;10973;46.706;12.340;2023-07-16T02:50:37;10.40;;;9.37;;
21621;SDS011;10973;46.706;12.340;2023-07-16T02:53:05;10.20;;;9.30;;
21621;SDS011;10973;46.706;12.340;2023-07-16T02:55:34;10.70;;;9.67;;
21621;SDS011;10973;46.706;12.340;2023-07-16T02:58:02;10.17;;;9.23;;
21621;SDS011;10973;46.706;12.340;2023-07-16T03:00:30;10.07;;;9.27;;
21621;SDS011;10973;46.706;12.340;2023-07-16T03:02:58;9.70;;;8.90;;
21621;SDS011;10973;46.706;12.340;2023-07-16T03:05:27;10.03;;;9.20;;
21621;SDS011;10973;46.706;12.340;2023-07-16T03:07:55;11.10;;;10.00;;
21621;SDS011;10973;46.706;12.340;2023-07-16T03:10:22;10.40;;;9.43;;
21621;SDS011;10973;46.706;12.340;2023-07-16T03:12:49;10.03;;;9.23;;
21621;SDS011;10973;46.706;12.340;2023-07-16T03:15:16;11.20;;;10.10;;
21621;SDS011;10973;46.706;12.340;2023-07-16T03:17:44;10.50;;;9.57;;
21621;SDS011;10973;46.706;12.340;2023-07-16T03:20:12;10.53;;;9.73;;
21621;SDS011;10973;46.706;12.340;2023-07-16T03:22:39;10.50;;;9.50;;
21621;SDS011;10973;46.706;12.340;2023-07-16T03:25:07;10.03;;;9.13;;
21621;SDS011;10973;46.706;12.340;2023-07-16T03:27:35;10.43;;;9.53;;
21621;SDS011;10973;46.706;12.340;2023-07-16T03:30:03;10.67;;;9.77;;
21621;SDS011;10973;46.706;12.340;2023-07-16T03:32:31;10.43;;;9.43;;
21621;SDS011;10973;46.706;12.340;2023-07-16T03:35:17;9.90;;;9.00;;
21621;SDS011;10973;46.706;12.340;2023-07-16T03:37:44;10.10;;;9.20;;
21621;SDS011;10973;46.706;12.340;2023-07-16T03:40:15;10.73;;;9.83;;
21621;SDS011;10973;46.706;12.340;2023-07-16T03:42:45;10.37;;;9.37;;
21621;SDS011;10973;46.706;12.340;2023-07-16T03:45:13;11.17;;;9.93;;
21621;SDS011;10973;46.706;12.340;2023-07-16T03:47:41;10.10;;;9.30;;
21621;SDS011;10973;46.706;12.340;2023-07-16T03:50:08;10.60;;;9.70;;
21621;SDS011;10973;46.706;12.340;2023-07-16T03:52:36;11.53;;;10.33;;
21621;SDS011;10973;46.706;12.340;2023-07-16T03:55:04;11.67;;;10.67;;
21621;SDS011;10973;46.706;12.340;2023-07-16T03:57:32;10.53;;;9.73;;
21621;SDS011;10973;46.706;12.340;2023-07-16T03:59:59;11.77;;;10.60;;
21621;SDS011;10973;46.706;12.340;2023-07-16T04:02:27;11.47;;;10.47;;
21621;SDS011;10973;46.706;12.340;2023-07-16T04:04:54;12.40;;;11.20;;
21621;SDS011;10973;46.706;12.340;2023-07-16T04:07:21;12.00;;;10.90;;
21621;SDS011;10973;46.706;12.340;2023-07-16T04:09:49;11.90;;;11.00;;
21621;SDS011;10973;46.706;12.340;2023-07-16T04:12:17;11.40;;;10.40;;
21621;SDS011;10973;46.706;12.340;2023-07-16T04:14:46;11.07;;;10.07;;
21621;SDS011;10973;46.706;12.340;2023-07-16T04:17:14;12.50;;;11.30;;
21621;SDS011;10973;46.706;12.340;2023-07-16T04:19:41;12.00;;;11.00;;
21621;SDS011;10973;46.706;12.340;2023-07-16T04:22:08;12.13;;;11.10;;
21621;SDS011;10973;46.706;12.340;2023-07-16T04:24:36;12.40;;;11.30;;
21621;SDS011;10973;46.706;12.340;2023-07-16T04:27:03;11.60;;;10.47;;
21621;SDS011;10973;46.706;12.340;2023-07-16T04:29:31;11.47;;;10.50;;
21621;SDS011;10973;46.706;12.340;2023-07-16T04:31:58;11.63;;;10.30;;
21621;SDS011;10973;46.706;12.340;2023-07-16T04:34:26;11.70;;;10.70;;
21621;SDS011;10973;46.706;12.340;2023-07-16T04:36:53;11.77;;;10.70;;
21621;SDS011;10973;46.706;12.340;2023-07-16T04:39:20;12.47;;;10.27;;
21621;SDS011;10973;46.706;12.340;2023-07-16T04:41:48;11.97;;;10.97;;
21621;SDS011;10973;46.706;12.340;2023-07-16T04:44:15;12.17;;;10.97;;
21621;SDS011;10973;46.706;12.340;2023-07-16T04:46:42;11.53;;;10.60;;
21621;SDS011;10973;46.706;12.340;2023-07-16T04:49:10;11.07;;;10.07;;
21621;SDS011;10973;46.706;12.340;2023-07-16T04:51:37;11.63;;;10.60;;
21621;SDS011;10973;46.706;12.340;2023-07-16T04:54:05;12.10;;;11.10;;
21621;SDS011;10973;46.706;12.340;2023-07-16T04:56:32;13.03;;;11.73;;
21621;SDS011;10973;46.706;12.340;2023-07-16T04:59:00;13.00;;;11.90;;
21621;SDS011;10973;46.706;12.340;2023-07-16T05:01:27;12.73;;;11.43;;
21621;SDS011;10973;46.706;12.340;2023-07-16T05:03:55;11.73;;;10.80;;
21621;SDS011;10973;46.706;12.340;2023-07-16T05:06:22;12.40;;;10.77;;
21621;SDS011;10973;46.706;12.340;2023-07-16T05:08:50;12.33;;;11.07;;
21621;SDS011;10973;46.706;12.340;2023-07-16T05:11:17;11.90;;;10.90;;
21621;SDS011;10973;46.706;12.340;2023-07-16T05:13:46;11.63;;;10.53;;
21621;SDS011;10973;46.706;12.340;2023-07-16T05:16:13;12.30;;;11.13;;
21621;SDS011;10973;46.706;12.340;2023-07-16T05:18:42;13.60;;;12.30;;
21621;SDS011;10973;46.706;12.340;2023-07-16T05:21:09;13.67;;;12.47;;
21621;SDS011;10973;46.706;12.340;2023-07-16T05:23:36;14.13;;;12.87;;
21621;SDS011;10973;46.706;12.340;2023-07-16T05:26:04;13.10;;;11.90;;
21621;SDS011;10973;46.706;12.340;2023-07-16T05:28:31;12.93;;;11.73;;
21621;SDS011;10973;46.706;12.340;2023-07-16T05:30:59;16.57;;;14.93;;
21621;SDS011;10973;46.706;12.340;2023-07-16T05:33:29;13.67;;;12.17;;
21621;SDS011;10973;46.706;12.340;2023-07-16T05:35:56;15.13;;;13.73;;
21621;SDS011;10973;46.706;12.340;2023-07-16T05:38:23;15.47;;;14.03;;
21621;SDS011;10973;46.706;12.340;2023-07-16T05:40:51;16.60;;;14.93;;
21621;SDS011;10973;46.706;12.340;2023-07-16T05:43:18;14.80;;;13.03;;
21621;SDS011;10973;46.706;12.340;2023-07-16T05:45:46;12.33;;;11.23;;
21621;SDS011;10973;46.706;12.340;2023-07-16T05:48:15;12.23;;;11.07;;
21621;SDS011;10973;46.706;12.340;2023-07-16T05:50:43;11.47;;;10.47;;
21621;SDS011;10973;46.706;12.340;2023-07-16T05:53:11;12.77;;;11.37;;
21621;SDS011;10973;46.706;12.340;2023-07-16T05:55:41;12.17;;;11.00;;
21621;SDS011;10973;46.706;12.340;2023-07-16T05:58:09;11.47;;;10.57;;
21621;SDS011;10973;46.706;12.340;2023-07-16T06:00:36;10.90;;;10.00;;
21621;SDS011;10973;46.706;12.340;2023-07-16T06:03:03;11.57;;;10.43;;
21621;SDS011;10973;46.706;12.340;2023-07-16T06:05:31;11.67;;;10.67;;
21621;SDS011;10973;46.706;12.340;2023-07-16T06:07:58;12.17;;;11.07;;
21621;SDS011;10973;46.706;12.340;2023-07-16T06:10:27;12.07;;;10.97;;
21621;SDS011;10973;46.706;12.340;2023-07-16T06:12:54;11.97;;;10.90;;
21621;SDS011;10973;46.706;12.340;2023-07-16T06:15:21;11.93;;;10.80;;
21621;SDS011;10973;46.706;12.340;2023-07-16T06:17:49;11.47;;;10.47;;
21621;SDS011;10973;46.706;12.340;2023-07-16T06:20:17;10.93;;;9.93;;
21621;SDS011;10973;46.706;12.340;2023-07-16T06:22:44;12.40;;;10.40;;
21621;SDS011;10973;46.706;12.340;2023-07-16T06:25:12;11.90;;;10.53;;
21621;SDS011;10973;46.706;12.340;2023-07-16T06:27:39;12.20;;;11.00;;
21621;SDS011;10973;46.706;12.340;2023-07-16T06:30:07;12.00;;;10.90;;
21621;SDS011;10973;46.706;12.340;2023-07-16T06:32:34;11.97;;;10.97;;
21621;SDS011;10973;46.706;12.340;2023-07-16T06:35:02;11.23;;;10.07;;
21621;SDS011;10973;46.706;12.340;2023-07-16T06:37:30;12.37;;;10.77;;
21621;SDS011;10973;46.706;12.340;2023-07-16T06:39:57;11.30;;;10.25;;
21621;SDS011;10973;46.706;12.340;2023-07-16T06:42:24;11.67;;;10.67;;
21621;SDS011;10973;46.706;12.340;2023-07-16T06:44:52;12.32;;;10.98;;
21621;SDS011;10973;46.706;12.340;2023-07-16T06:47:19;10.77;;;9.80;;
21621;SDS011;10973;46.706;12.340;2023-07-16T06:49:47;11.00;;;10.00;;
21621;SDS011;10973;46.706;12.340;2023-07-16T06:52:18;11.17;;;10.17;;
21621;SDS011;10973;46.706;12.340;2023-07-16T06:54:47;11.13;;;10.23;;
21621;SDS011;10973;46.706;12.340;2023-07-16T06:57:15;12.38;;;10.18;;
21621;SDS011;10973;46.706;12.340;2023-07-16T06:59:43;10.88;;;9.77;;
21621;SDS011;10973;46.706;12.340;2023-07-16T07:02:11;10.55;;;9.60;;
21621;SDS011;10973;46.706;12.340;2023-07-16T07:04:39;11.30;;;10.07;;
21621;SDS011;10973;46.706;12.340;2023-07-16T07:07:06;11.15;;;10.02;;
21621;SDS011;10973;46.706;12.340;2023-07-16T07:09:33;11.02;;;10.02;;
21621;SDS011;10973;46.706;12.340;2023-07-16T07:12:01;9.75;;;8.95;;
21621;SDS011;10973;46.706;12.340;2023-07-16T07:14:29;10.52;;;9.63;;
21621;SDS011;10973;46.706;12.340;2023-07-16T07:16:56;11.25;;;10.15;;
21621;SDS011;10973;46.706;12.340;2023-07-16T07:19:24;10.35;;;9.45;;
21621;SDS011;10973;46.706;12.340;2023-07-16T07:21:51;10.85;;;9.75;;
21621;SDS011;10973;46.706;12.340;2023-07-16T07:24:19;11.85;;;10.75;;
21621;SDS011;10973;46.706;12.340;2023-07-16T07:26:59;10.38;;;9.35;;
21621;SDS011;10973;46.706;12.340;2023-07-16T07:29:26;11.55;;;10.38;;
21621;SDS011;10973;46.706;12.340;2023-07-16T07:31:53;10.90;;;9.90;;
21621;SDS011;10973;46.706;12.340;2023-07-16T07:34:21;10.02;;;9.23;;
21621;SDS011;10973;46.706;12.340;2023-07-16T07:36:48;9.80;;;9.10;;
21621;SDS011;10973;46.706;12.340;2023-07-16T07:39:18;9.85;;;9.02;;
21621;SDS011;10973;46.706;12.340;2023-07-16T07:41:46;11.13;;;10.02;;
21621;SDS011;10973;46.706;12.340;2023-07-16T07:44:13;11.05;;;9.93;;
21621;SDS011;10973;46.706;12.340;2023-07-16T07:46:41;9.60;;;8.65;;
21621;SDS011;10973;46.706;12.340;2023-07-16T07:49:08;10.60;;;8.77;;
21621;SDS011;10973;46.706;12.340;2023-07-16T07:51:36;10.55;;;9.18;;
21621;SDS011;10973;46.706;12.340;2023-07-16T07:54:03;10.95;;;8.70;;
21621;SDS011;10973;46.706;12.340;2023-07-16T07:56:30;8.98;;;7.95;;
21621;SDS011;10973;46.706;12.340;2023-07-16T07:58:58;9.57;;;8.63;;
21621;SDS011;10973;46.706;12.340;2023-07-16T08:01:25;9.52;;;8.63;;
21621;SDS011;10973;46.706;12.340;2023-07-16T08:03:55;9.30;;;8.50;;
21621;SDS011;10973;46.706;12.340;2023-07-16T08:06:23;10.48;;;8.65;;
21621;SDS011;10973;46.706;12.340;2023-07-16T08:08:50;9.63;;;8.32;;
21621;SDS011;10973;46.706;12.340;2023-07-16T08:11:18;9.32;;;8.43;;
21621;SDS011;10973;46.706;12.340;2023-07-16T08:13:45;9.93;;;8.43;;
21621;SDS011;10973;46.706;12.340;2023-07-16T08:16:12;8.63;;;7.82;;
21621;SDS011;10973;46.706;12.340;2023-07-16T08:18:41;9.50;;;8.27;;
21621;SDS011;10973;46.706;12.340;2023-07-16T08:21:08;8.75;;;7.85;;
21621;SDS011;10973;46.706;12.340;2023-07-16T08:23:36;8.45;;;7.75;;
21621;SDS011;10973;46.706;12.340;2023-07-16T08:26:03;8.27;;;7.47;;
21621;SDS011;10973;46.706;12.340;2023-07-16T08:28:31;9.05;;;8.15;;
21621;SDS011;10973;46.706;12.340;2023-07-16T08:30:58;9.05;;;7.70;;
21621;SDS011;10973;46.706;12.340;2023-07-16T08:33:28;9.02;;;8.07;;
21621;SDS011;10973;46.706;12.340;2023-07-16T08:35:55;8.02;;;7.22;;
21621;SDS011;10973;46.706;12.340;2023-07-16T08:38:23;9.02;;;8.13;;
21621;SDS011;10973;46.706;12.340;2023-07-16T08:40:50;10.18;;;8.20;;
21621;SDS011;10973;46.706;12.340;2023-07-16T08:43:17;8.82;;;8.00;;
21621;SDS011;10973;46.706;12.340;2023-07-16T08:45:47;8.40;;;7.63;;
21621;SDS011;10973;46.706;12.340;2023-07-16T08:48:17;7.63;;;7.03;;
21621;SDS011;10973;46.706;12.340;2023-07-16T08:50:47;8.35;;;7.30;;
21621;SDS011;10973;46.706;12.340;2023-07-16T08:53:16;9.65;;;7.25;;
21621;SDS011;10973;46.706;12.340;2023-07-16T08:55:44;7.97;;;7.20;;
21621;SDS011;10973;46.706;12.340;2023-07-16T08:58:16;7.57;;;6.97;;
21621;SDS011;10973;46.706;12.340;2023-07-16T09:00:49;8.73;;;7.93;;
21621;SDS011;10973;46.706;12.340;2023-07-16T09:03:20;9.73;;;8.55;;
21621;SDS011;10973;46.706;12.340;2023-07-16T09:05:47;7.35;;;6.65;;
21621;SDS011;10973;46.706;12.340;2023-07-16T09:08:15;9.32;;;8.45;;
21621;SDS011;10973;46.706;12.340;2023-07-16T09:10:42;8.23;;;7.47;;
21621;SDS011;10973;46.706;12.340;2023-07-16T09:13:10;8.10;;;7.15;;
21621;SDS011;10973;46.706;12.340;2023-07-16T09:15:37;9.20;;;8.00;;
21621;SDS011;10973;46.706;12.340;2023-07-16T09:18:05;8.85;;;7.90;;
21621;SDS011;10973;46.706;12.340;2023-07-16T09:20:33;7.85;;;6.90;;
21621;SDS011;10973;46.706;12.340;2023-07-16T09:23:01;8.02;;;7.28;;
21621;SDS011;10973;46.706;12.340;2023-07-16T09:25:29;9.27;;;7.63;;
21621;SDS011;10973;46.706;12.340;2023-07-16T09:27:58;8.18;;;7.38;;
21621;SDS011;10973;46.706;12.340;2023-07-16T09:30:31;8.40;;;7.47;;
21621;SDS011;10973;46.706;12.340;2023-07-16T09:33:15;9.70;;;7.75;;
21621;SDS011;10973;46.706;12.340;2023-07-16T09:35:47;8.05;;;7.32;;
21621;SDS011;10973;46.706;12.340;2023-07-16T09:38:16;8.40;;;7.75;;
21621;SDS011;10973;46.706;12.340;2023-07-16T09:40:45;8.30;;;7.50;;
21621;SDS011;10973;46.706;12.340;2023-07-16T09:43:13;7.82;;;7.22;;
21621;SDS011;10973;46.706;12.340;2023-07-16T09:45:41;10.32;;;6.82;;
21621;SDS011;10973;46.706;12.340;2023-07-16T09:48:09;8.30;;;7.70;;
21621;SDS011;10973;46.706;12.340;2023-07-16T09:50:37;8.30;;;7.60;;
21621;SDS011;10973;46.706;12.340;2023-07-16T09:53:13;8.07;;;7.28;;
21621;SDS011;10973;46.706;12.340;2023-07-16T09:55:46;8.32;;;7.45;;
21621;SDS011;10973;46.706;12.340;2023-07-16T09:58:14;7.43;;;6.93;;
21621;SDS011;10973;46.706;12.340;2023-07-16T10:00:47;7.43;;;6.90;;
21621;SDS011;10973;46.706;12.340;2023-07-16T10:03:16;8.10;;;7.28;;
21621;SDS011;10973;46.706;12.340;2023-07-16T10:05:43;7.43;;;6.80;;
21621;SDS011;10973;46.706;12.340;2023-07-16T10:08:18;7.80;;;6.93;;
21621;SDS011;10973;46.706;12.340;2023-07-16T10:10:53;7.53;;;6.57;;
21621;SDS011;10973;46.706;12.340;2023-07-16T10:13:22;6.82;;;6.25;;
21621;SDS011;10973;46.706;12.340;2023-07-16T10:15:57;6.95;;;6.25;;
21621;SDS011;10973;46.706;12.340;2023-07-16T10:18:29;7.43;;;6.72;;
21621;SDS011;10973;46.706;12.340;2023-07-16T10:21:03;6.75;;;6.03;;
21621;SDS011;10973;46.706;12.340;2023-07-16T10:23:38;7.00;;;6.30;;
21621;SDS011;10973;46.706;12.340;2023-07-16T10:26:08;7.00;;;6.30;;
21621;SDS011;10973;46.706;12.340;2023-07-16T10:28:45;6.35;;;5.78;;
21621;SDS011;10973;46.706;12.340;2023-07-16T10:31:17;6.75;;;6.07;;
21621;SDS011;10973;46.706;12.340;2023-07-16T10:34:02;7.47;;;6.78;;
21621;SDS011;10973;46.706;12.340;2023-07-16T10:36:38;6.75;;;6.25;;
21621;SDS011;10973;46.706;12.340;2023-07-16T10:39:06;6.70;;;6.22;;
21621;SDS011;10973;46.706;12.340;2023-07-16T10:41:34;6.60;;;6.10;;
21621;SDS011;10973;46.706;12.340;2023-07-16T10:44:02;7.38;;;5.85;;
21621;SDS011;10973;46.706;12.340;2023-07-16T10:46:31;7.00;;;6.30;;
21621;SDS011;10973;46.706;12.340;2023-07-16T10:48:58;6.18;;;5.57;;
21621;SDS011;10973;46.706;12.340;2023-07-16T10:51:26;6.80;;;6.38;;
21621;SDS011;10973;46.706;12.340;2023-07-16T10:53:57;5.97;;;5.57;;
21621;SDS011;10973;46.706;12.340;2023-07-16T10:56:24;6.35;;;5.80;;
21621;SDS011;10973;46.706;12.340;2023-07-16T10:58:52;8.68;;;6.70;;
21621;SDS011;10973;46.706;12.340;2023-07-16T11:01:19;6.90;;;6.32;;
21621;SDS011;10973;46.706;12.340;2023-07-16T11:03:48;6.32;;;5.82;;
21621;SDS011;10973;46.706;12.340;2023-07-16T11:06:16;6.47;;;5.88;;
21621;SDS011;10973;46.706;12.340;2023-07-16T11:08:46;7.38;;;6.68;;
21621;SDS011;10973;46.706;12.340;2023-07-16T11:11:13;6.57;;;5.85;;
21621;SDS011;10973;46.706;12.340;2023-07-16T11:13:40;6.95;;;6.22;;
21621;SDS011;10973;46.706;12.340;2023-07-16T11:16:08;6.90;;;6.30;;
21621;SDS011;10973;46.706;12.340;2023-07-16T11:18:37;7.32;;;6.82;;
21621;SDS011;10973;46.706;12.340;2023-07-16T11:21:05;6.82;;;6.30;;
21621;SDS011;10973;46.706;12.340;2023-07-16T11:23:35;7.63;;;6.03;;
21621;SDS011;10973;46.706;12.340;2023-07-16T11:26:02;7.10;;;6.50;;
21621;SDS011;10973;46.706;12.340;2023-07-16T11:28:37;6.90;;;6.20;;
21621;SDS011;10973;46.706;12.340;2023-07-16T11:31:25;6.55;;;6.05;;
21621;SDS011;10973;46.706;12.340;2023-07-16T11:33:52;6.65;;;6.10;;
21621;SDS011;10973;46.706;12.340;2023-07-16T11:36:28;6.45;;;6.00;;
21621;SDS011;10973;46.706;12.340;2023-07-16T11:38:55;6.45;;;5.82;;
21621;SDS011;10973;46.706;12.340;2023-07-16T11:41:23;6.57;;;5.97;;
21621;SDS011;10973;46.706;12.340;2023-07-16T11:43:50;6.68;;;6.15;;
21621;SDS011;10973;46.706;12.340;2023-07-16T11:46:18;7.55;;;6.47;;
21621;SDS011;10973;46.706;12.340;2023-07-16T11:48:46;6.90;;;6.40;;
21621;SDS011;10973;46.706;12.340;2023-07-16T11:51:14;6.78;;;6.07;;
21621;SDS011;10973;46.706;12.340;2023-07-16T11:53:41;6.63;;;6.13;;
21621;SDS011;10973;46.706;12.340;2023-07-16T11:56:08;6.53;;;5.85;;
21621;SDS011;10973;46.706;12.340;2023-07-16T11:58:36;7.10;;;6.18;;
21621;SDS011;10973;46.706;12.340;2023-07-16T12:01:03;6.57;;;5.95;;
21621;SDS011;10973;46.706;12.340;2023-07-16T12:03:30;7.22;;;6.60;;
21621;SDS011;10973;46.706;12.340;2023-07-16T12:05:58;7.10;;;6.60;;
21621;SDS011;10973;46.706;12.340;2023-07-16T12:08:25;10.50;;;6.63;;
21621;SDS011;10973;46.706;12.340;2023-07-16T12:10:52;7.00;;;6.43;;
21621;SDS011;10973;46.706;12.340;2023-07-16T12:13:20;7.05;;;6.45;;
21621;SDS011;10973;46.706;12.340;2023-07-16T12:15:47;6.57;;;5.97;;
21621;SDS011;10973;46.706;12.340;2023-07-16T12:18:15;7.32;;;6.70;;
21621;SDS011;10973;46.706;12.340;2023-07-16T12:20:43;6.47;;;5.97;;
21621;SDS011;10973;46.706;12.340;2023-07-16T12:23:10;6.88;;;6.38;;
21621;SDS011;10973;46.706;12.340;2023-07-16T12:25:38;6.85;;;6.25;;
21621;SDS011;10973;46.706;12.340;2023-07-16T12:28:05;6.30;;;5.88;;
21621;SDS011;10973;46.706;12.340;2023-07-16T12:30:32;7.03;;;6.43;;
21621;SDS011;10973;46.706;12.340;2023-07-16T12:33:00;6.65;;;6.05;;
21621;SDS011;10973;46.706;12.340;2023-07-16T12:35:27;7.72;;;6.30;;
21621;SDS011;10973;46.706;12.340;2023-07-16T12:37:54;6.75;;;6.15;;
21621;SDS011;10973;46.706;12.340;2023-07-16T12:40:24;7.70;;;6.00;;
21621;SDS011;10973;46.706;12.340;2023-07-16T12:42:52;5.70;;;5.32;;
21621;SDS011;10973;46.706;12.340;2023-07-16T12:45:19;6.57;;;5.97;;
21621;SDS011;10973;46.706;12.340;2023-07-16T12:47:47;6.40;;;5.78;;
21621;SDS011;10973;46.706;12.340;2023-07-16T12:50:15;6.63;;;6.05;;
21621;SDS011;10973;46.706;12.340;2023-07-16T12:52:43;6.65;;;6.05;;
21621;SDS011;10973;46.706;12.340;2023-07-16T12:55:10;6.38;;;5.88;;
21621;SDS011;10973;46.706;12.340;2023-07-16T12:57:38;6.95;;;6.25;;
21621;SDS011;10973;46.706;12.340;2023-07-16T13:00:05;6.70;;;5.68;;
21621;SDS011;10973;46.706;12.340;2023-07-16T13:02:33;7.30;;;5.70;;
21621;SDS011;10973;46.706;12.340;2023-07-16T13:05:01;5.85;;;5.40;;
21621;SDS011;10973;46.706;12.340;2023-07-16T13:07:29;7.30;;;5.80;;
21621;SDS011;10973;46.706;12.340;2023-07-16T13:09:57;6.72;;;6.22;;
21621;SDS011;10973;46.706;12.340;2023-07-16T13:12:43;6.05;;;5.45;;
21621;SDS011;10973;46.706;12.340;2023-07-16T13:15:11;7.15;;;5.70;;
21621;SDS011;10973;46.706;12.340;2023-07-16T13:17:38;6.13;;;5.40;;
21621;SDS011;10973;46.706;12.340;2023-07-16T13:20:06;6.63;;;5.63;;
21621;SDS011;10973;46.706;12.340;2023-07-16T13:22:34;5.90;;;5.35;;
21621;SDS011;10973;46.706;12.340;2023-07-16T13:25:02;6.93;;;5.40;;
21621;SDS011;10973;46.706;12.340;2023-07-16T13:27:30;6.90;;;6.00;;
21621;SDS011;10973;46.706;12.340;2023-07-16T13:29:57;6.18;;;5.68;;
21621;SDS011;10973;46.706;12.340;2023-07-16T13:32:25;6.15;;;5.65;;
21621;SDS011;10973;46.706;12.340;2023-07-16T13:34:53;6.00;;;5.50;;
21621;SDS011;10973;46.706;12.340;2023-07-16T13:37:21;8.60;;;5.05;;
21621;SDS011;10973;46.706;12.340;2023-07-16T13:39:48;6.15;;;5.70;;
21621;SDS011;10973;46.706;12.340;2023-07-16T13:42:17;6.07;;;5.50;;
21621;SDS011;10973;46.706;12.340;2023-07-16T13:44:52;5.80;;;5.30;;
21621;SDS011;10973;46.706;12.340;2023-07-16T13:47:24;6.82;;;5.30;;
21621;SDS011;10973;46.706;12.340;2023-07-16T13:49:56;6.03;;;5.53;;
21621;SDS011;10973;46.706;12.340;2023-07-16T13:52:29;6.10;;;5.47;;
21621;SDS011;10973;46.706;12.340;2023-07-16T13:54:57;6.93;;;5.57;;
21621;SDS011;10973;46.706;12.340;2023-07-16T13:57:27;6.30;;;5.80;;
21621;SDS011;10973;46.706;12.340;2023-07-16T13:59:54;5.68;;;5.10;;
21621;SDS011;10973;46.706;12.340;2023-07-16T14:02:21;6.00;;;5.50;;
21621;SDS011;10973;46.706;12.340;2023-07-16T14:04:49;6.65;;;5.38;;
21621;SDS011;10973;46.706;12.340;2023-07-16T14:07:16;13.40;;;6.32;;
21621;SDS011;10973;46.706;12.340;2023-07-16T14:09:44;8.05;;;5.25;;
21621;SDS011;10973;46.706;12.340;2023-07-16T14:12:11;7.15;;;5.20;;
21621;SDS011;10973;46.706;12.340;2023-07-16T14:14:38;5.70;;;5.10;;
21621;SDS011;10973;46.706;12.340;2023-07-16T14:17:06;6.30;;;5.05;;
21621;SDS011;10973;46.706;12.340;2023-07-16T14:19:34;6.03;;;5.53;;
21621;SDS011;10973;46.706;12.340;2023-07-16T14:22:02;8.48;;;5.28;;
21621;SDS011;10973;46.706;12.340;2023-07-16T14:24:30;5.88;;;5.30;;
21621;SDS011;10973;46.706;12.340;2023-07-16T14:26:57;5.63;;;5.22;;
21621;SDS011;10973;46.706;12.340;2023-07-16T14:29:25;10.93;;;5.20;;
21621;SDS011;10973;46.706;12.340;2023-07-16T14:31:53;6.78;;;5.03;;
21621;SDS011;10973;46.706;12.340;2023-07-16T14:34:21;7.68;;;5.40;;
21621;SDS011;10973;46.706;12.340;2023-07-16T14:36:49;5.70;;;5.20;;
21621;SDS011;10973;46.706;12.340;2023-07-16T14:39:16;5.53;;;5.10;;